ケープタウン の空港の天気 - METARとTAF

ケープタウン国際空港 ( FACT / CPT ) - 南アフリカ ケープタウン
飛行場実況気象(Metar)
観測時間01/29 08:00 SAST (01/29 06:00 UTC)
風向・風速南南西 6m/s
視程10km以上
天気現象
なし
気温21℃
湿度56%
気圧1014hPa
METARFACT 290600Z 21012KT CAVOK 21/12 Q1014 NOSIG
過去の天気等 Google飛行場航空写真 Wunderground天気予報

過去48時間のMETAR

飛行場予報(TAF)
発表時間: 1/29 06:00 SAST (1/29 04:00 UTC)
予報対象時間: 29日8時 SAST ~ 30日14時 SAST
風向・風速南 7m/s
視程10km以上
なし
29日14時 SAST ~ 29日16時 SAST に徐々に
風向・風速南 12m/s
29日22時 SAST ~ 29日24時 SAST に徐々に
風向・風速南 5m/s
30日12時 SAST ~ 30日14時 SAST に徐々に
風向・風速南 10m/s
TAF FACT 290400Z 2906/3012 18013KT CAVOK TX30/3012Z TN18/3004Z
BECMG 2912/2914 18023KT
BECMG 2920/2922 18010KT
BECMG 3010/3012 18020KT